createdAt,value
2019-03-25T04:15:15.792Z,81.47
2019-03-25T04:17:45.543Z,81.50
2019-03-25T04:20:15.116Z,107.10
2019-03-25T04:22:44.709Z,96.07
2019-03-25T04:25:14.267Z,93.53
2019-03-25T04:27:43.792Z,95.30
2019-03-25T04:30:13.699Z,88.17
2019-03-25T04:32:43.147Z,92.67
2019-03-25T04:35:13.051Z,87.90
2019-03-25T04:37:42.579Z,105.30
2019-03-25T04:40:12.202Z,107.07
2019-03-25T04:42:41.740Z,103.43
2019-03-25T04:45:11.525Z,96.83
2019-03-25T04:47:41.086Z,97.07
2019-03-25T04:50:10.686Z,96.40
2019-03-25T04:52:40.306Z,88.00
2019-03-25T04:55:09.951Z,96.37
2019-03-25T04:57:39.757Z,90.77
2019-03-25T05:00:09.941Z,94.07
2019-03-25T05:02:39.477Z,88.23
2019-03-25T05:05:10.275Z,91.30
2019-03-25T05:07:39.887Z,94.13
2019-03-25T05:10:09.981Z,90.83
2019-03-25T05:12:39.637Z,91.50
2019-03-25T05:15:09.272Z,81.97
2019-03-25T05:17:38.910Z,96.07
2019-03-25T05:20:08.718Z,92.63
2019-03-25T05:22:38.230Z,94.97
2019-03-25T05:25:08.058Z,85.27
2019-03-25T05:27:37.652Z,92.03
2019-03-25T05:30:08.050Z,100.50
2019-03-25T05:32:37.577Z,92.53
2019-03-25T05:35:07.849Z,100.10
2019-03-25T05:37:37.523Z,92.47
2019-03-25T05:40:07.454Z,88.30
2019-03-25T05:42:36.932Z,107.63
2019-03-25T05:45:06.650Z,106.57
2019-03-25T05:47:36.200Z,98.13
2019-03-25T05:50:09.081Z,106.53
2019-03-25T05:52:38.905Z,84.97
2019-03-25T05:55:09.148Z,98.20
2019-03-25T05:57:38.655Z,89.37
2019-03-25T06:00:08.411Z,86.20
2019-03-25T06:02:37.959Z,92.70
2019-03-25T06:05:10.738Z,87.97
2019-03-25T06:07:40.314Z,87.93
2019-03-25T06:10:10.050Z,85.67
2019-03-25T06:12:39.501Z,81.93
2019-03-25T06:15:09.359Z,77.40
2019-03-25T06:17:38.870Z,67.97
2019-03-25T06:20:09.089Z,67.60
2019-03-25T06:22:38.618Z,72.50
2019-03-25T06:25:08.433Z,60.03
2019-03-25T06:27:38.021Z,64.10
2019-03-25T06:30:09.025Z,51.43
2019-03-25T06:32:38.551Z,51.80
2019-03-25T06:35:09.255Z,55.93
2019-03-25T06:37:38.963Z,49.60
2019-03-25T06:40:08.854Z,42.07
2019-03-25T06:42:38.571Z,46.43
2019-03-25T06:45:08.882Z,42.77
2019-03-25T06:47:38.346Z,51.73
2019-03-25T06:50:09.578Z,47.00
2019-03-25T06:52:39.278Z,44.47
2019-03-25T06:55:09.129Z,42.57
2019-03-25T06:57:39.027Z,41.93
2019-03-25T07:00:09.330Z,43.57
2019-03-25T07:02:38.959Z,38.40
2019-03-25T07:05:09.033Z,43.70
2019-03-25T07:07:38.685Z,39.10
2019-03-25T07:10:08.618Z,42.00
2019-03-25T07:12:38.682Z,35.20
2019-03-25T07:15:09.064Z,33.00
2019-03-25T07:17:38.784Z,29.20
2019-03-25T07:20:08.997Z,36.03
2019-03-25T07:22:38.709Z,33.07
2019-03-25T07:25:08.499Z,31.07
2019-03-25T07:27:38.022Z,31.97
2019-03-25T07:30:11.283Z,27.53
2019-03-25T07:32:40.699Z,31.07
2019-03-25T07:35:11.027Z,33.97
2019-03-25T07:37:40.636Z,26.67
2019-03-25T07:40:10.484Z,38.13
2019-03-25T07:42:40.047Z,34.50
2019-03-25T07:45:10.098Z,31.47
2019-03-25T07:47:39.582Z,28.40
2019-03-25T07:50:09.318Z,33.87
2019-03-25T07:52:38.807Z,33.50
2019-03-25T07:55:08.529Z,28.60
2019-03-25T07:57:47.633Z,28.00
2019-03-25T08:00:13.759Z,37.93
2019-03-25T08:02:42.436Z,36.60
2019-03-25T08:05:12.477Z,30.00
2019-03-25T08:07:42.054Z,27.43
2019-03-25T08:10:12.604Z,30.20
2019-03-25T08:12:42.183Z,23.57
2019-03-25T08:15:12.045Z,25.53
2019-03-25T08:17:41.548Z,24.47
2019-03-25T08:20:11.269Z,20.37
2019-03-25T08:22:40.814Z,27.00
2019-03-25T08:25:10.757Z,25.90
2019-03-25T08:27:40.282Z,18.23
2019-03-25T08:30:09.983Z,23.67
2019-03-25T08:32:39.592Z,27.87
2019-03-25T08:35:09.329Z,18.70
2019-03-25T08:37:38.965Z,20.13
2019-03-25T08:40:10.296Z,24.83
2019-03-25T08:42:39.901Z,23.57
2019-03-25T08:45:09.995Z,23.13
2019-03-25T08:47:39.611Z,17.20
2019-03-25T08:50:10.003Z,18.53
2019-03-25T08:52:39.759Z,22.97
2019-03-25T08:55:09.622Z,18.67
2019-03-25T08:57:39.258Z,19.60
2019-03-25T09:00:09.621Z,20.47
2019-03-25T09:02:39.208Z,13.63
2019-03-25T09:05:09.641Z,19.60
2019-03-25T09:07:39.183Z,13.63
2019-03-25T09:10:09.373Z,18.73
2019-03-25T09:12:38.981Z,15.60
2019-03-25T09:15:09.632Z,17.23
2019-03-25T09:17:39.254Z,12.03
2019-03-25T09:20:09.950Z,13.30
2019-03-25T09:22:39.628Z,14.00
2019-03-25T09:25:09.635Z,22.27
2019-03-25T09:27:39.286Z,12.73
2019-03-25T09:30:12.100Z,14.33
2019-03-25T09:32:41.734Z,12.00
2019-03-25T09:35:11.538Z,11.67
2019-03-25T09:37:41.167Z,14.63
2019-03-25T09:40:11.673Z,13.20
2019-03-25T09:42:41.223Z,10.40
2019-03-25T09:45:12.155Z,15.30
2019-03-25T09:47:41.774Z,12.23
2019-03-25T09:50:13.627Z,9.43
2019-03-25T09:52:43.142Z,12.43
2019-03-25T09:55:12.920Z,9.00
2019-03-25T09:57:42.679Z,9.20
2019-03-25T10:00:13.248Z,7.93
2019-03-25T10:02:42.875Z,10.63
2019-03-25T10:05:12.558Z,10.63
2019-03-25T10:07:42.015Z,7.50
2019-03-25T10:10:12.011Z,13.77
2019-03-25T10:12:41.631Z,12.33
2019-03-25T10:15:11.537Z,6.40
2019-03-25T10:17:41.005Z,7.57
2019-03-25T10:20:10.722Z,17.70
2019-03-25T10:22:40.273Z,10.80
2019-03-25T10:25:11.072Z,11.23
2019-03-25T10:27:40.748Z,6.90
2019-03-25T10:30:12.023Z,7.90
2019-03-25T10:32:41.661Z,8.60
2019-03-25T10:35:11.933Z,7.87
2019-03-25T10:37:41.534Z,7.30
2019-03-25T10:40:11.810Z,11.23
2019-03-25T10:42:41.399Z,9.73
2019-03-25T10:45:11.705Z,17.23
2019-03-25T10:47:41.324Z,8.00
2019-03-25T10:50:11.337Z,13.53
2019-03-25T10:52:40.866Z,8.93
2019-03-25T10:55:10.654Z,12.50
2019-03-25T10:57:40.275Z,6.03
2019-03-25T11:00:10.760Z,18.43
2019-03-25T11:02:40.528Z,6.60
2019-03-25T11:05:10.615Z,4.87
2019-03-25T11:07:40.412Z,3.40
2019-03-25T11:10:10.580Z,10.03
2019-03-25T11:12:40.102Z,6.10
2019-03-25T11:15:10.060Z,7.40
2019-03-25T11:17:39.740Z,3.27
2019-03-25T11:20:10.131Z,4.70
2019-03-25T11:22:39.741Z,2.67
2019-03-25T11:25:10.045Z,6.80
2019-03-25T11:27:39.622Z,9.63
2019-03-25T11:30:10.798Z,5.20
2019-03-25T11:32:40.471Z,2.40
2019-03-25T11:35:10.547Z,4.00
2019-03-25T11:37:40.033Z,6.77
2019-03-25T11:40:11.088Z,3.93
2019-03-25T11:42:40.759Z,6.80
2019-03-25T11:45:11.244Z,5.97
2019-03-25T11:47:40.895Z,3.83
2019-03-25T11:50:10.849Z,6.83
2019-03-25T11:52:40.572Z,4.93
2019-03-25T11:55:10.505Z,5.07
2019-03-25T11:57:40.024Z,5.80
2019-03-25T12:00:09.826Z,7.13
2019-03-25T12:02:39.418Z,3.80
2019-03-25T12:05:09.394Z,5.07
2019-03-25T12:07:38.923Z,8.67
2019-03-25T12:10:08.681Z,9.83
2019-03-25T12:12:38.185Z,4.40
2019-03-25T12:15:08.490Z,5.07
2019-03-25T12:17:38.086Z,7.00
2019-03-25T12:20:08.332Z,6.83
2019-03-25T12:22:37.887Z,4.90
2019-03-25T12:25:07.562Z,5.40
2019-03-25T12:27:37.269Z,7.50
2019-03-25T12:30:07.508Z,8.27
2019-03-25T12:32:37.182Z,7.67
2019-03-25T12:35:07.259Z,3.53
2019-03-25T12:37:36.759Z,5.83
2019-03-25T12:40:07.923Z,4.60
2019-03-25T12:42:37.774Z,3.70
2019-03-25T12:45:09.104Z,3.40
2019-03-25T12:47:38.670Z,8.47
2019-03-25T12:50:09.104Z,4.27
2019-03-25T12:52:38.732Z,6.90
2019-03-25T12:55:08.529Z,3.70
2019-03-25T12:57:38.141Z,2.57
2019-03-25T13:00:08.369Z,6.83
2019-03-25T13:02:37.802Z,5.70
2019-03-25T13:05:07.819Z,4.80
2019-03-25T13:07:37.427Z,6.30
2019-03-25T13:10:07.435Z,2.10
2019-03-25T13:12:37.464Z,3.17
2019-03-25T13:15:07.731Z,3.97
2019-03-25T13:17:37.284Z,3.63
2019-03-25T13:20:07.312Z,5.13
2019-03-25T13:22:36.895Z,5.77
2019-03-25T13:25:07.054Z,2.80
2019-03-25T13:27:36.494Z,7.50
2019-03-25T13:30:07.094Z,4.27
2019-03-25T13:32:36.683Z,5.13
2019-03-25T13:35:06.365Z,8.00
2019-03-25T13:37:36.006Z,5.37
2019-03-25T13:40:06.204Z,3.47
2019-03-25T13:42:35.843Z,13.33
2019-03-25T13:45:05.661Z,3.20
2019-03-25T13:47:35.297Z,2.00
2019-03-25T13:50:05.019Z,7.30
2019-03-25T13:52:34.490Z,2.43
2019-03-25T13:55:04.157Z,11.03
2019-03-25T13:57:33.818Z,7.03
2019-03-25T14:00:04.076Z,3.33
2019-03-25T14:02:33.778Z,10.10
2019-03-25T14:05:03.291Z,2.03
2019-03-25T14:07:32.850Z,4.00
2019-03-25T14:10:02.538Z,2.57
2019-03-25T14:12:32.365Z,1.70
2019-03-25T14:15:01.957Z,8.50
2019-03-25T14:17:31.734Z,9.30
2019-03-25T14:20:01.664Z,6.13
2019-03-25T14:22:31.165Z,2.93
2019-03-25T14:25:00.649Z,1.90
2019-03-25T14:27:30.096Z,2.53
2019-03-25T14:29:59.750Z,3.53
2019-03-25T14:32:29.315Z,3.10
2019-03-25T14:34:58.743Z,2.60
2019-03-25T14:37:28.267Z,5.23
2019-03-25T14:39:57.815Z,3.47
2019-03-25T14:42:27.381Z,3.67
2019-03-25T14:44:57.029Z,4.63
2019-03-25T14:47:26.791Z,6.40
2019-03-25T14:49:56.334Z,7.93
2019-03-25T14:52:26.119Z,4.50
2019-03-25T14:54:55.655Z,4.80
2019-03-25T14:57:25.175Z,5.70
2019-03-25T14:59:54.771Z,3.43
2019-03-25T15:02:24.231Z,7.63
2019-03-25T15:04:53.788Z,6.37
2019-03-25T15:07:23.384Z,6.80
2019-03-25T15:09:53.018Z,8.80
2019-03-25T15:12:22.658Z,8.27
2019-03-25T15:14:52.285Z,3.53
2019-03-25T15:17:21.792Z,9.70
2019-03-25T15:19:51.327Z,3.97
2019-03-25T15:22:20.997Z,3.50
2019-03-25T15:24:50.500Z,4.20
2019-03-25T15:27:20.041Z,7.70
2019-03-25T15:29:50.190Z,3.27
2019-03-25T15:32:20.018Z,4.50
2019-03-25T15:34:49.507Z,3.50
2019-03-25T15:37:19.363Z,4.27
2019-03-25T15:39:49.171Z,3.50
2019-03-25T15:42:19.045Z,3.60
2019-03-25T15:44:48.574Z,3.00
2019-03-25T15:47:18.261Z,3.60
2019-03-25T15:49:47.837Z,3.10
2019-03-25T15:52:17.384Z,4.13
2019-03-25T15:54:46.983Z,3.00
2019-03-25T15:57:16.615Z,4.70
2019-03-25T15:59:46.237Z,3.43
2019-03-25T16:02:15.698Z,3.33
2019-03-25T16:04:45.158Z,1.73
2019-03-25T16:07:14.689Z,2.57
2019-03-25T16:09:44.314Z,2.90
2019-03-25T16:12:13.763Z,2.40
2019-03-25T16:14:43.314Z,3.23
2019-03-25T16:17:12.847Z,9.27
2019-03-25T16:19:44.258Z,2.53
2019-03-25T16:22:14.181Z,2.33
2019-03-25T16:24:43.711Z,3.77
2019-03-25T16:27:13.346Z,4.70
2019-03-25T16:29:42.786Z,2.60
2019-03-25T16:32:12.465Z,3.83
2019-03-25T16:34:41.933Z,3.80
2019-03-25T16:37:11.564Z,4.03
2019-03-25T16:39:41.106Z,3.67
2019-03-25T16:42:10.876Z,3.47
2019-03-25T16:44:40.330Z,2.50
2019-03-25T16:47:09.870Z,5.40
2019-03-25T16:49:39.387Z,5.17
2019-03-25T16:52:08.906Z,2.83
2019-03-25T16:54:38.475Z,2.90
2019-03-25T16:57:07.927Z,2.33
2019-03-25T16:59:37.561Z,5.30
2019-03-25T17:02:07.160Z,5.70
2019-03-25T17:04:36.837Z,2.77
2019-03-25T17:07:06.372Z,2.37
2019-03-25T17:09:35.914Z,7.90
2019-03-25T17:12:05.524Z,2.93
2019-03-25T17:14:35.041Z,3.20
2019-03-25T17:17:04.665Z,4.50
2019-03-25T17:19:34.131Z,2.30
2019-03-25T17:22:03.707Z,4.27
2019-03-25T17:24:33.334Z,2.40
2019-03-25T17:27:02.978Z,4.73
2019-03-25T17:29:32.598Z,2.97
2019-03-25T17:32:02.050Z,8.50
2019-03-25T17:34:31.591Z,5.43
2019-03-25T17:37:01.131Z,7.00
2019-03-25T17:39:30.605Z,3.70
2019-03-25T17:42:00.161Z,2.00
2019-03-25T17:44:29.750Z,2.60
2019-03-25T17:46:59.275Z,3.73
2019-03-25T17:49:28.882Z,2.30
2019-03-25T17:51:58.566Z,2.70
2019-03-25T17:54:28.003Z,2.30
2019-03-25T17:56:57.601Z,7.90
2019-03-25T17:59:27.176Z,3.97
2019-03-25T18:01:56.859Z,4.20
2019-03-25T18:04:26.466Z,4.30
2019-03-25T18:06:56.143Z,2.13
2019-03-25T18:09:25.613Z,2.10
2019-03-25T18:11:55.132Z,7.17
2019-03-25T18:14:24.652Z,4.27
2019-03-25T18:16:54.123Z,4.17
2019-03-25T18:19:23.680Z,2.40
2019-03-25T18:21:53.225Z,5.60
2019-03-25T18:24:22.683Z,3.33
2019-03-25T18:26:52.288Z,5.17
2019-03-25T18:29:21.828Z,4.10
2019-03-25T18:31:51.295Z,0.97
2019-03-25T18:34:20.851Z,2.80
2019-03-25T18:36:50.395Z,1.17
2019-03-25T18:39:20.123Z,2.10
2019-03-25T18:41:50.272Z,0.60
2019-03-25T18:44:20.153Z,0.60
2019-03-25T18:46:49.791Z,0.50
2019-03-25T18:49:19.401Z,0.93
2019-03-25T18:51:49.111Z,0.67
2019-03-25T18:54:18.998Z,0.70
2019-03-25T18:56:48.682Z,1.23
2019-03-25T18:59:18.351Z,0.77
2019-03-25T19:01:54.355Z,0.97
2019-03-25T19:04:19.248Z,0.70
2019-03-25T19:06:49.903Z,2.70
2019-03-25T19:09:19.452Z,0.60
2019-03-25T19:11:48.991Z,0.97
2019-03-25T19:14:18.567Z,1.50
2019-03-25T19:16:48.093Z,2.23
2019-03-25T19:19:17.670Z,3.47
2019-03-25T19:21:47.158Z,4.73
2019-03-25T19:24:16.620Z,2.40
2019-03-25T19:26:46.082Z,8.10
2019-03-25T19:29:15.617Z,2.87
2019-03-25T19:31:45.196Z,2.97
2019-03-25T19:34:14.785Z,6.57
2019-03-25T19:36:44.342Z,6.17
2019-03-25T19:39:13.994Z,5.80
2019-03-25T19:41:43.983Z,5.73
2019-03-25T19:44:13.614Z,3.33
2019-03-25T19:46:43.127Z,3.80
2019-03-25T19:49:12.731Z,3.50
2019-03-25T19:51:42.378Z,5.00
2019-03-25T19:54:11.977Z,4.63
2019-03-25T19:56:41.454Z,6.37
2019-03-25T19:59:10.940Z,3.53
2019-03-25T20:01:40.416Z,3.03
2019-03-25T20:04:09.975Z,3.07
2019-03-25T20:06:39.763Z,3.20
2019-03-25T20:09:09.615Z,5.13
2019-03-25T20:11:39.116Z,2.50
2019-03-25T20:14:08.684Z,3.40
2019-03-25T20:16:38.396Z,4.27
2019-03-25T20:19:08.033Z,2.97
2019-03-25T20:21:37.573Z,3.13
2019-03-25T20:24:07.275Z,3.57
2019-03-25T20:26:36.770Z,3.03
2019-03-25T20:29:06.735Z,2.10
2019-03-25T20:31:36.398Z,2.63
2019-03-25T20:34:11.243Z,5.37
2019-03-25T20:36:37.304Z,2.33
2019-03-25T20:39:08.821Z,5.27
2019-03-25T20:41:38.429Z,1.93
2019-03-25T20:44:08.138Z,2.10
2019-03-25T20:46:37.832Z,2.10
2019-03-25T20:49:07.540Z,2.10
2019-03-25T20:51:37.042Z,2.53
2019-03-25T20:54:06.798Z,2.80
2019-03-25T20:56:36.493Z,2.93
2019-03-25T20:59:06.179Z,2.13
2019-03-25T21:01:35.638Z,7.40
2019-03-25T21:04:05.291Z,3.60
2019-03-25T21:06:34.884Z,3.67
2019-03-25T21:09:05.478Z,4.13
2019-03-25T21:11:35.034Z,3.50
2019-03-25T21:14:04.771Z,5.33
2019-03-25T21:16:34.325Z,3.87
2019-03-25T21:19:04.037Z,3.70
2019-03-25T21:21:33.661Z,4.17
2019-03-25T21:24:05.660Z,4.77
2019-03-25T21:26:35.163Z,4.50
2019-03-25T21:29:04.769Z,4.10
2019-03-25T21:31:34.388Z,5.40
2019-03-25T21:34:03.992Z,3.90
2019-03-25T21:36:33.691Z,4.90
2019-03-25T21:39:03.879Z,5.70
2019-03-25T21:41:33.491Z,3.80
2019-03-25T21:44:03.154Z,7.23
2019-03-25T21:46:32.748Z,5.87
2019-03-25T21:49:02.346Z,9.80
2019-03-25T21:51:31.995Z,6.13
2019-03-25T21:54:01.794Z,4.90
2019-03-25T21:56:31.616Z,5.20
2019-03-25T21:59:01.168Z,4.70
2019-03-25T22:01:30.871Z,5.37
2019-03-25T22:04:00.561Z,8.67
2019-03-25T22:06:30.120Z,7.00
2019-03-25T22:09:00.526Z,6.40
2019-03-25T22:11:30.069Z,4.83
2019-03-25T22:13:59.649Z,6.43
2019-03-25T22:16:29.121Z,6.40
2019-03-25T22:18:58.742Z,6.03
2019-03-25T22:21:28.228Z,4.73
2019-03-25T22:23:57.739Z,4.80
2019-03-25T22:26:27.430Z,5.60
2019-03-25T22:28:56.983Z,4.80
2019-03-25T22:31:26.499Z,5.30
2019-03-25T22:33:55.975Z,6.87
2019-03-25T22:36:25.516Z,9.53
2019-03-25T22:38:55.151Z,8.60
2019-03-25T22:41:24.721Z,10.23
2019-03-25T22:43:54.229Z,6.10
2019-03-25T22:46:23.771Z,6.73
2019-03-25T22:48:53.318Z,7.40
2019-03-25T22:51:22.754Z,5.20
2019-03-25T22:53:52.367Z,6.30
2019-03-25T22:56:21.875Z,5.40
2019-03-25T22:58:51.330Z,4.23
2019-03-25T23:01:21.070Z,5.37
2019-03-25T23:03:50.626Z,5.30
2019-03-25T23:06:20.150Z,4.93
2019-03-25T23:08:49.873Z,4.57
2019-03-25T23:11:19.658Z,8.63
2019-03-25T23:13:49.121Z,6.73
2019-03-25T23:16:18.665Z,6.47
2019-03-25T23:18:48.358Z,6.30
2019-03-25T23:21:17.880Z,6.90
2019-03-25T23:23:47.484Z,6.33
2019-03-25T23:26:16.986Z,5.83
2019-03-25T23:28:46.509Z,7.83
